sensor_id;sensor_type;location;lat;lon;timestamp;P1;durP1;ratioP1;P2;durP2;ratioP2
70667;SDS011;58242;51.250;-1.118;2022-12-08T00:01:19;3.42;;;3.13;;
70667;SDS011;58242;51.250;-1.118;2022-12-08T00:03:47;3.30;;;3.00;;
70667;SDS011;58242;51.250;-1.118;2022-12-08T00:06:26;3.28;;;3.00;;
70667;SDS011;58242;51.250;-1.118;2022-12-08T00:09:19;3.13;;;2.80;;
70667;SDS011;58242;51.250;-1.118;2022-12-08T00:14:13;3.83;;;3.22;;
70667;SDS011;58242;51.250;-1.118;2022-12-08T00:16:38;4.07;;;3.67;;
70667;SDS011;58242;51.250;-1.118;2022-12-08T00:19:03;3.22;;;2.88;;
70667;SDS011;58242;51.250;-1.118;2022-12-08T00:21:29;3.80;;;3.55;;
70667;SDS011;58242;51.250;-1.118;2022-12-08T00:23:54;3.97;;;3.55;;
70667;SDS011;58242;51.250;-1.118;2022-12-08T00:26:20;3.88;;;3.58;;
70667;SDS011;58242;51.250;-1.118;2022-12-08T00:28:46;3.28;;;3.00;;
70667;SDS011;58242;51.250;-1.118;2022-12-08T00:31:12;3.50;;;3.20;;
70667;SDS011;58242;51.250;-1.118;2022-12-08T00:33:37;3.10;;;2.90;;
70667;SDS011;58242;51.250;-1.118;2022-12-08T00:36:06;3.70;;;3.40;;
70667;SDS011;58242;51.250;-1.118;2022-12-08T00:38:33;3.47;;;3.17;;
70667;SDS011;58242;51.250;-1.118;2022-12-08T00:40:59;3.55;;;3.00;;
70667;SDS011;58242;51.250;-1.118;2022-12-08T00:43:25;3.15;;;2.95;;
70667;SDS011;58242;51.250;-1.118;2022-12-08T00:45:50;3.95;;;3.65;;
70667;SDS011;58242;51.250;-1.118;2022-12-08T00:48:16;4.03;;;3.50;;
70667;SDS011;58242;51.250;-1.118;2022-12-08T00:50:41;3.70;;;2.97;;
70667;SDS011;58242;51.250;-1.118;2022-12-08T00:53:06;4.07;;;2.88;;
70667;SDS011;58242;51.250;-1.118;2022-12-08T00:55:32;3.13;;;2.92;;
70667;SDS011;58242;51.250;-1.118;2022-12-08T00:57:57;3.42;;;3.10;;
70667;SDS011;58242;51.250;-1.118;2022-12-08T01:00:22;4.15;;;3.53;;
70667;SDS011;58242;51.250;-1.118;2022-12-08T01:02:47;3.42;;;3.13;;
70667;SDS011;58242;51.250;-1.118;2022-12-08T01:05:13;3.38;;;3.17;;
70667;SDS011;58242;51.250;-1.118;2022-12-08T01:07:38;3.42;;;3.13;;
70667;SDS011;58242;51.250;-1.118;2022-12-08T01:10:03;4.32;;;3.65;;
70667;SDS011;58242;51.250;-1.118;2022-12-08T01:12:29;4.03;;;3.55;;
70667;SDS011;58242;51.250;-1.118;2022-12-08T01:14:55;3.60;;;3.30;;
70667;SDS011;58242;51.250;-1.118;2022-12-08T01:17:20;3.67;;;3.35;;
70667;SDS011;58242;51.250;-1.118;2022-12-08T01:19:45;3.65;;;3.03;;
70667;SDS011;58242;51.250;-1.118;2022-12-08T01:22:11;3.30;;;3.00;;
70667;SDS011;58242;51.250;-1.118;2022-12-08T01:24:36;3.40;;;3.05;;
70667;SDS011;58242;51.250;-1.118;2022-12-08T01:27:01;2.95;;;2.75;;
70667;SDS011;58242;51.250;-1.118;2022-12-08T01:29:26;3.35;;;3.15;;
70667;SDS011;58242;51.250;-1.118;2022-12-08T01:31:52;3.28;;;2.97;;
70667;SDS011;58242;51.250;-1.118;2022-12-08T01:34:17;4.13;;;3.38;;
70667;SDS011;58242;51.250;-1.118;2022-12-08T01:36:43;2.80;;;2.60;;
70667;SDS011;58242;51.250;-1.118;2022-12-08T01:39:10;2.75;;;2.63;;
70667;SDS011;58242;51.250;-1.118;2022-12-08T01:41:40;4.13;;;3.33;;
70667;SDS011;58242;51.250;-1.118;2022-12-08T01:46:32;3.80;;;3.50;;
70667;SDS011;58242;51.250;-1.118;2022-12-08T01:49:09;3.10;;;2.90;;
70667;SDS011;58242;51.250;-1.118;2022-12-08T01:51:42;3.70;;;3.40;;
70667;SDS011;58242;51.250;-1.118;2022-12-08T01:54:16;3.65;;;3.35;;
70667;SDS011;58242;51.250;-1.118;2022-12-08T01:56:51;3.78;;;3.38;;
70667;SDS011;58242;51.250;-1.118;2022-12-08T01:59:26;3.38;;;3.08;;
70667;SDS011;58242;51.250;-1.118;2022-12-08T02:01:53;3.38;;;3.17;;
70667;SDS011;58242;51.250;-1.118;2022-12-08T02:04:19;3.47;;;3.17;;
70667;SDS011;58242;51.250;-1.118;2022-12-08T02:06:44;4.05;;;3.75;;
70667;SDS011;58242;51.250;-1.118;2022-12-08T02:09:13;3.83;;;3.17;;
70667;SDS011;58242;51.250;-1.118;2022-12-08T02:11:38;3.10;;;2.90;;
70667;SDS011;58242;51.250;-1.118;2022-12-08T02:14:05;4.05;;;3.67;;
70667;SDS011;58242;51.250;-1.118;2022-12-08T02:22:00;3.30;;;3.05;;
70667;SDS011;58242;51.250;-1.118;2022-12-08T02:38:20;2.80;;;2.60;;
70667;SDS011;58242;51.250;-1.118;2022-12-08T02:43:47;3.30;;;3.10;;
70667;SDS011;58242;51.250;-1.118;2022-12-08T02:46:23;3.28;;;2.97;;
70667;SDS011;58242;51.250;-1.118;2022-12-08T02:48:53;3.08;;;2.83;;
70667;SDS011;58242;51.250;-1.118;2022-12-08T02:51:20;3.78;;;3.10;;
70667;SDS011;58242;51.250;-1.118;2022-12-08T02:53:45;3.20;;;3.00;;
70667;SDS011;58242;51.250;-1.118;2022-12-08T02:56:25;2.88;;;2.67;;
70667;SDS011;58242;51.250;-1.118;2022-12-08T02:59:03;3.08;;;2.83;;
70667;SDS011;58242;51.250;-1.118;2022-12-08T03:07:27;2.88;;;2.58;;
70667;SDS011;58242;51.250;-1.118;2022-12-08T03:10:04;4.22;;;3.00;;
70667;SDS011;58242;51.250;-1.118;2022-12-08T03:12:38;2.97;;;2.72;;
70667;SDS011;58242;51.250;-1.118;2022-12-08T03:15:12;2.90;;;2.70;;
70667;SDS011;58242;51.250;-1.118;2022-12-08T03:17:41;2.70;;;2.50;;
70667;SDS011;58242;51.250;-1.118;2022-12-08T03:20:10;2.60;;;2.50;;
70667;SDS011;58242;51.250;-1.118;2022-12-08T03:22:41;2.78;;;2.67;;
70667;SDS011;58242;51.250;-1.118;2022-12-08T03:25:09;3.15;;;2.67;;
70667;SDS011;58242;51.250;-1.118;2022-12-08T03:27:38;3.38;;;3.08;;
70667;SDS011;58242;51.250;-1.118;2022-12-08T03:30:03;2.88;;;2.67;;
70667;SDS011;58242;51.250;-1.118;2022-12-08T03:32:33;2.90;;;2.70;;
70667;SDS011;58242;51.250;-1.118;2022-12-08T03:35:06;3.40;;;2.80;;
70667;SDS011;58242;51.250;-1.118;2022-12-08T03:37:35;4.00;;;3.22;;
70667;SDS011;58242;51.250;-1.118;2022-12-08T03:40:02;2.65;;;2.45;;
70667;SDS011;58242;51.250;-1.118;2022-12-08T03:42:29;2.90;;;2.70;;
70667;SDS011;58242;51.250;-1.118;2022-12-08T03:44:55;2.30;;;2.20;;
70667;SDS011;58242;51.250;-1.118;2022-12-08T03:47:20;2.63;;;2.42;;
70667;SDS011;58242;51.250;-1.118;2022-12-08T03:49:45;3.08;;;2.80;;
70667;SDS011;58242;51.250;-1.118;2022-12-08T03:52:11;3.40;;;2.40;;
70667;SDS011;58242;51.250;-1.118;2022-12-08T03:54:36;3.00;;;2.80;;
70667;SDS011;58242;51.250;-1.118;2022-12-08T03:57:01;2.60;;;2.50;;
70667;SDS011;58242;51.250;-1.118;2022-12-08T03:59:27;2.78;;;2.58;;
70667;SDS011;58242;51.250;-1.118;2022-12-08T04:01:52;2.78;;;2.58;;
70667;SDS011;58242;51.250;-1.118;2022-12-08T04:04:17;2.70;;;2.50;;
70667;SDS011;58242;51.250;-1.118;2022-12-08T04:06:43;2.50;;;2.40;;
70667;SDS011;58242;51.250;-1.118;2022-12-08T04:09:08;2.70;;;2.50;;
70667;SDS011;58242;51.250;-1.118;2022-12-08T04:11:33;2.78;;;2.58;;
70667;SDS011;58242;51.250;-1.118;2022-12-08T04:13:59;2.55;;;2.35;;
70667;SDS011;58242;51.250;-1.118;2022-12-08T04:16:24;2.72;;;2.60;;
70667;SDS011;58242;51.250;-1.118;2022-12-08T04:18:51;2.45;;;2.33;;
70667;SDS011;58242;51.250;-1.118;2022-12-08T04:21:17;2.97;;;2.50;;
70667;SDS011;58242;51.250;-1.118;2022-12-08T04:23:42;2.35;;;2.20;;
70667;SDS011;58242;51.250;-1.118;2022-12-08T04:26:09;2.65;;;2.55;;
70667;SDS011;58242;51.250;-1.118;2022-12-08T04:28:35;2.72;;;2.53;;
70667;SDS011;58242;51.250;-1.118;2022-12-08T04:31:00;3.22;;;3.00;;
70667;SDS011;58242;51.250;-1.118;2022-12-08T04:33:26;2.80;;;2.60;;
70667;SDS011;58242;51.250;-1.118;2022-12-08T04:35:52;4.63;;;3.30;;
70667;SDS011;58242;51.250;-1.118;2022-12-08T04:38:17;2.90;;;2.70;;
70667;SDS011;58242;51.250;-1.118;2022-12-08T04:40:42;3.13;;;2.80;;
70667;SDS011;58242;51.250;-1.118;2022-12-08T04:43:08;2.75;;;2.60;;
70667;SDS011;58242;51.250;-1.118;2022-12-08T04:45:33;2.70;;;2.55;;
70667;SDS011;58242;51.250;-1.118;2022-12-08T04:47:59;2.30;;;2.20;;
70667;SDS011;58242;51.250;-1.118;2022-12-08T04:50:26;2.60;;;2.47;;
70667;SDS011;58242;51.250;-1.118;2022-12-08T04:52:51;2.50;;;2.30;;
70667;SDS011;58242;51.250;-1.118;2022-12-08T04:55:17;2.80;;;2.60;;
70667;SDS011;58242;51.250;-1.118;2022-12-08T04:57:42;3.13;;;2.30;;
70667;SDS011;58242;51.250;-1.118;2022-12-08T05:00:08;2.67;;;2.38;;
70667;SDS011;58242;51.250;-1.118;2022-12-08T05:02:34;2.40;;;2.20;;
70667;SDS011;58242;51.250;-1.118;2022-12-08T05:04:59;2.47;;;2.30;;
70667;SDS011;58242;51.250;-1.118;2022-12-08T05:07:25;2.67;;;2.45;;
70667;SDS011;58242;51.250;-1.118;2022-12-08T05:09:50;2.38;;;2.28;;
70667;SDS011;58242;51.250;-1.118;2022-12-08T05:12:15;2.45;;;2.33;;
70667;SDS011;58242;51.250;-1.118;2022-12-08T05:14:41;2.70;;;2.50;;
70667;SDS011;58242;51.250;-1.118;2022-12-08T05:17:06;2.40;;;2.30;;
70667;SDS011;58242;51.250;-1.118;2022-12-08T05:19:32;3.05;;;2.85;;
70667;SDS011;58242;51.250;-1.118;2022-12-08T05:21:57;2.08;;;1.98;;
70667;SDS011;58242;51.250;-1.118;2022-12-08T05:24:22;3.05;;;2.63;;
70667;SDS011;58242;51.250;-1.118;2022-12-08T05:26:48;2.50;;;2.35;;
70667;SDS011;58242;51.250;-1.118;2022-12-08T05:29:13;2.58;;;2.38;;
70667;SDS011;58242;51.250;-1.118;2022-12-08T05:31:38;2.30;;;2.20;;
70667;SDS011;58242;51.250;-1.118;2022-12-08T05:34:03;3.40;;;2.70;;
70667;SDS011;58242;51.250;-1.118;2022-12-08T05:36:29;2.75;;;2.55;;
70667;SDS011;58242;51.250;-1.118;2022-12-08T05:38:55;2.28;;;1.92;;
70667;SDS011;58242;51.250;-1.118;2022-12-08T05:41:21;2.88;;;2.30;;
70667;SDS011;58242;51.250;-1.118;2022-12-08T05:43:47;2.47;;;2.35;;
70667;SDS011;58242;51.250;-1.118;2022-12-08T05:46:13;2.20;;;2.10;;
70667;SDS011;58242;51.250;-1.118;2022-12-08T05:48:38;2.97;;;2.67;;
70667;SDS011;58242;51.250;-1.118;2022-12-08T05:51:05;2.95;;;2.75;;
70667;SDS011;58242;51.250;-1.118;2022-12-08T05:53:37;2.60;;;2.50;;
70667;SDS011;58242;51.250;-1.118;2022-12-08T05:56:02;2.58;;;2.47;;
70667;SDS011;58242;51.250;-1.118;2022-12-08T05:58:28;2.75;;;2.55;;
70667;SDS011;58242;51.250;-1.118;2022-12-08T06:00:53;2.42;;;2.30;;
70667;SDS011;58242;51.250;-1.118;2022-12-08T06:03:18;2.63;;;2.47;;
70667;SDS011;58242;51.250;-1.118;2022-12-08T06:05:44;2.83;;;2.47;;
70667;SDS011;58242;51.250;-1.118;2022-12-08T06:08:11;2.38;;;2.28;;
70667;SDS011;58242;51.250;-1.118;2022-12-08T06:10:37;2.90;;;2.30;;
70667;SDS011;58242;51.250;-1.118;2022-12-08T06:13:04;2.25;;;2.10;;
70667;SDS011;58242;51.250;-1.118;2022-12-08T06:15:29;2.10;;;2.00;;
70667;SDS011;58242;51.250;-1.118;2022-12-08T06:17:54;2.25;;;2.13;;
70667;SDS011;58242;51.250;-1.118;2022-12-08T06:20:19;2.10;;;2.00;;
70667;SDS011;58242;51.250;-1.118;2022-12-08T06:22:45;2.00;;;1.90;;
70667;SDS011;58242;51.250;-1.118;2022-12-08T06:25:10;2.75;;;2.55;;
70667;SDS011;58242;51.250;-1.118;2022-12-08T06:27:35;2.63;;;2.05;;
70667;SDS011;58242;51.250;-1.118;2022-12-08T06:30:01;1.85;;;1.75;;
70667;SDS011;58242;51.250;-1.118;2022-12-08T06:32:26;1.88;;;1.77;;
70667;SDS011;58242;51.250;-1.118;2022-12-08T06:34:52;2.20;;;2.00;;
70667;SDS011;58242;51.250;-1.118;2022-12-08T06:37:17;2.33;;;2.22;;
70667;SDS011;58242;51.250;-1.118;2022-12-08T06:39:43;2.15;;;2.05;;
70667;SDS011;58242;51.250;-1.118;2022-12-08T06:42:08;2.30;;;2.20;;
70667;SDS011;58242;51.250;-1.118;2022-12-08T06:44:52;2.20;;;2.10;;
70667;SDS011;58242;51.250;-1.118;2022-12-08T06:47:17;2.10;;;2.00;;
70667;SDS011;58242;51.250;-1.118;2022-12-08T06:49:44;2.30;;;2.20;;
70667;SDS011;58242;51.250;-1.118;2022-12-08T06:52:10;2.90;;;2.58;;
70667;SDS011;58242;51.250;-1.118;2022-12-08T06:54:35;2.40;;;2.30;;
70667;SDS011;58242;51.250;-1.118;2022-12-08T06:57:00;2.10;;;2.00;;
70667;SDS011;58242;51.250;-1.118;2022-12-08T06:59:26;2.80;;;2.10;;
70667;SDS011;58242;51.250;-1.118;2022-12-08T07:01:51;2.65;;;2.45;;
70667;SDS011;58242;51.250;-1.118;2022-12-08T07:04:16;1.80;;;1.80;;
70667;SDS011;58242;51.250;-1.118;2022-12-08T07:06:42;2.13;;;2.00;;
70667;SDS011;58242;51.250;-1.118;2022-12-08T07:09:07;2.50;;;2.40;;
70667;SDS011;58242;51.250;-1.118;2022-12-08T07:11:33;2.10;;;2.00;;
70667;SDS011;58242;51.250;-1.118;2022-12-08T07:13:58;2.33;;;2.22;;
70667;SDS011;58242;51.250;-1.118;2022-12-08T07:16:23;2.58;;;2.35;;
70667;SDS011;58242;51.250;-1.118;2022-12-08T07:18:49;2.50;;;2.40;;
70667;SDS011;58242;51.250;-1.118;2022-12-08T07:21:14;2.45;;;2.30;;
70667;SDS011;58242;51.250;-1.118;2022-12-08T07:23:41;3.25;;;2.97;;
70667;SDS011;58242;51.250;-1.118;2022-12-08T07:26:10;3.60;;;3.30;;
70667;SDS011;58242;51.250;-1.118;2022-12-08T07:28:37;3.10;;;2.90;;
70667;SDS011;58242;51.250;-1.118;2022-12-08T07:31:03;3.25;;;3.00;;
70667;SDS011;58242;51.250;-1.118;2022-12-08T07:33:30;3.00;;;2.80;;
70667;SDS011;58242;51.250;-1.118;2022-12-08T07:35:56;2.75;;;2.55;;
70667;SDS011;58242;51.250;-1.118;2022-12-08T07:38:23;3.28;;;3.08;;
70667;SDS011;58242;51.250;-1.118;2022-12-08T07:40:49;3.25;;;3.05;;
70667;SDS011;58242;51.250;-1.118;2022-12-08T07:43:15;2.55;;;2.40;;
70667;SDS011;58242;51.250;-1.118;2022-12-08T07:45:40;3.10;;;2.90;;
70667;SDS011;58242;51.250;-1.118;2022-12-08T07:48:06;2.30;;;2.20;;
70667;SDS011;58242;51.250;-1.118;2022-12-08T07:50:32;2.42;;;2.33;;
70667;SDS011;58242;51.250;-1.118;2022-12-08T07:52:57;2.38;;;2.28;;
70667;SDS011;58242;51.250;-1.118;2022-12-08T07:55:22;3.00;;;2.80;;
70667;SDS011;58242;51.250;-1.118;2022-12-08T07:57:48;2.90;;;2.70;;
70667;SDS011;58242;51.250;-1.118;2022-12-08T08:00:14;3.08;;;2.78;;
70667;SDS011;58242;51.250;-1.118;2022-12-08T08:02:40;2.95;;;2.75;;
70667;SDS011;58242;51.250;-1.118;2022-12-08T08:05:06;2.65;;;2.40;;
70667;SDS011;58242;51.250;-1.118;2022-12-08T08:07:32;2.70;;;2.50;;
70667;SDS011;58242;51.250;-1.118;2022-12-08T08:09:57;2.50;;;2.30;;
70667;SDS011;58242;51.250;-1.118;2022-12-08T08:12:23;2.60;;;2.47;;
70667;SDS011;58242;51.250;-1.118;2022-12-08T08:14:48;2.40;;;2.20;;
70667;SDS011;58242;51.250;-1.118;2022-12-08T08:17:13;3.13;;;2.40;;
70667;SDS011;58242;51.250;-1.118;2022-12-08T08:19:38;2.58;;;2.38;;
70667;SDS011;58242;51.250;-1.118;2022-12-08T08:22:04;2.88;;;2.38;;
70667;SDS011;58242;51.250;-1.118;2022-12-08T08:24:29;2.92;;;2.72;;
70667;SDS011;58242;51.250;-1.118;2022-12-08T08:26:54;2.63;;;2.42;;
70667;SDS011;58242;51.250;-1.118;2022-12-08T08:29:20;2.47;;;2.28;;
70667;SDS011;58242;51.250;-1.118;2022-12-08T08:31:45;2.20;;;2.08;;
70667;SDS011;58242;51.250;-1.118;2022-12-08T08:34:11;2.15;;;2.00;;
70667;SDS011;58242;51.250;-1.118;2022-12-08T08:36:36;2.30;;;2.20;;
70667;SDS011;58242;51.250;-1.118;2022-12-08T08:39:03;2.25;;;2.15;;
70667;SDS011;58242;51.250;-1.118;2022-12-08T08:41:28;2.33;;;2.22;;
70667;SDS011;58242;51.250;-1.118;2022-12-08T08:43:53;1.98;;;1.88;;
70667;SDS011;58242;51.250;-1.118;2022-12-08T08:46:19;2.72;;;2.53;;
70667;SDS011;58242;51.250;-1.118;2022-12-08T08:48:44;2.83;;;2.08;;
70667;SDS011;58242;51.250;-1.118;2022-12-08T08:51:10;2.17;;;2.08;;
70667;SDS011;58242;51.250;-1.118;2022-12-08T08:53:37;2.40;;;2.30;;
70667;SDS011;58242;51.250;-1.118;2022-12-08T08:56:06;2.45;;;2.35;;
70667;SDS011;58242;51.250;-1.118;2022-12-08T08:58:35;2.20;;;2.10;;
70667;SDS011;58242;51.250;-1.118;2022-12-08T09:01:00;3.03;;;2.38;;
70667;SDS011;58242;51.250;-1.118;2022-12-08T09:03:25;2.42;;;2.33;;
70667;SDS011;58242;51.250;-1.118;2022-12-08T09:05:51;2.70;;;2.50;;
70667;SDS011;58242;51.250;-1.118;2022-12-08T09:08:16;2.42;;;2.33;;
70667;SDS011;58242;51.250;-1.118;2022-12-08T09:10:42;2.17;;;2.08;;
70667;SDS011;58242;51.250;-1.118;2022-12-08T09:13:07;2.22;;;2.13;;
70667;SDS011;58242;51.250;-1.118;2022-12-08T09:15:33;2.88;;;2.60;;
70667;SDS011;58242;51.250;-1.118;2022-12-08T09:17:58;2.53;;;2.33;;
70667;SDS011;58242;51.250;-1.118;2022-12-08T09:20:24;2.40;;;2.30;;
70667;SDS011;58242;51.250;-1.118;2022-12-08T09:22:49;2.47;;;2.38;;
70667;SDS011;58242;51.250;-1.118;2022-12-08T09:25:15;2.72;;;2.53;;
70667;SDS011;58242;51.250;-1.118;2022-12-08T09:27:40;2.30;;;2.20;;
70667;SDS011;58242;51.250;-1.118;2022-12-08T09:30:06;2.15;;;2.05;;
70667;SDS011;58242;51.250;-1.118;2022-12-08T09:32:32;2.45;;;2.20;;
70667;SDS011;58242;51.250;-1.118;2022-12-08T09:34:58;2.75;;;2.10;;
70667;SDS011;58242;51.250;-1.118;2022-12-08T09:37:23;2.72;;;2.63;;
70667;SDS011;58242;51.250;-1.118;2022-12-08T09:39:49;2.70;;;2.30;;
70667;SDS011;58242;51.250;-1.118;2022-12-08T09:42:15;2.85;;;2.60;;
70667;SDS011;58242;51.250;-1.118;2022-12-08T09:45:08;2.60;;;2.40;;
70667;SDS011;58242;51.250;-1.118;2022-12-08T09:47:39;2.83;;;2.25;;
70667;SDS011;58242;51.250;-1.118;2022-12-08T09:55:48;2.23;;;2.13;;
70667;SDS011;58242;51.250;-1.118;2022-12-08T09:58:31;2.85;;;2.65;;
70667;SDS011;58242;51.250;-1.118;2022-12-08T10:01:11;2.50;;;2.30;;
70667;SDS011;58242;51.250;-1.118;2022-12-08T10:03:37;2.58;;;2.40;;
70667;SDS011;58242;51.250;-1.118;2022-12-08T10:11:15;3.58;;;3.28;;
70667;SDS011;58242;51.250;-1.118;2022-12-08T10:16:50;3.53;;;3.22;;
70667;SDS011;58242;51.250;-1.118;2022-12-08T10:19:21;2.83;;;2.63;;
70667;SDS011;58242;51.250;-1.118;2022-12-08T10:21:48;3.35;;;2.70;;
70667;SDS011;58242;51.250;-1.118;2022-12-08T10:24:35;2.83;;;2.63;;
70667;SDS011;58242;51.250;-1.118;2022-12-08T10:27:01;2.50;;;2.30;;
70667;SDS011;58242;51.250;-1.118;2022-12-08T10:29:27;2.92;;;2.70;;
70667;SDS011;58242;51.250;-1.118;2022-12-08T10:31:55;2.30;;;2.10;;
70667;SDS011;58242;51.250;-1.118;2022-12-08T10:34:22;2.72;;;2.53;;
70667;SDS011;58242;51.250;-1.118;2022-12-08T10:47:39;2.05;;;1.95;;
70667;SDS011;58242;51.250;-1.118;2022-12-08T10:52:31;2.33;;;2.17;;
70667;SDS011;58242;51.250;-1.118;2022-12-08T10:55:02;2.13;;;1.98;;
70667;SDS011;58242;51.250;-1.118;2022-12-08T10:57:28;2.72;;;2.45;;
70667;SDS011;58242;51.250;-1.118;2022-12-08T10:59:53;2.63;;;2.42;;
70667;SDS011;58242;51.250;-1.118;2022-12-08T11:02:20;2.60;;;2.40;;
70667;SDS011;58242;51.250;-1.118;2022-12-08T11:04:45;3.00;;;2.60;;
70667;SDS011;58242;51.250;-1.118;2022-12-08T11:07:19;3.00;;;2.80;;
70667;SDS011;58242;51.250;-1.118;2022-12-08T11:09:46;2.67;;;2.47;;
70667;SDS011;58242;51.250;-1.118;2022-12-08T11:12:17;2.65;;;2.45;;
70667;SDS011;58242;51.250;-1.118;2022-12-08T11:17:17;2.35;;;2.15;;
70667;SDS011;58242;51.250;-1.118;2022-12-08T11:22:38;2.33;;;2.22;;
70667;SDS011;58242;51.250;-1.118;2022-12-08T11:25:12;3.13;;;2.92;;
70667;SDS011;58242;51.250;-1.118;2022-12-08T11:27:43;3.10;;;2.72;;
70667;SDS011;58242;51.250;-1.118;2022-12-08T11:30:12;2.70;;;2.50;;
70667;SDS011;58242;51.250;-1.118;2022-12-08T11:32:45;2.38;;;2.25;;
70667;SDS011;58242;51.250;-1.118;2022-12-08T11:37:54;2.47;;;2.17;;
70667;SDS011;58242;51.250;-1.118;2022-12-08T11:40:23;2.27;;;2.07;;
70667;SDS011;58242;51.250;-1.118;2022-12-08T11:45:50;2.80;;;2.60;;
70667;SDS011;58242;51.250;-1.118;2022-12-08T11:48:32;3.95;;;2.90;;
70667;SDS011;58242;51.250;-1.118;2022-12-08T11:51:15;3.38;;;3.08;;
70667;SDS011;58242;51.250;-1.118;2022-12-08T11:56:21;2.60;;;2.40;;
70667;SDS011;58242;51.250;-1.118;2022-12-08T11:58:59;3.00;;;2.50;;
70667;SDS011;58242;51.250;-1.118;2022-12-08T12:01:29;2.97;;;2.70;;
70667;SDS011;58242;51.250;-1.118;2022-12-08T12:03:58;2.45;;;2.30;;
70667;SDS011;58242;51.250;-1.118;2022-12-08T12:07:35;2.95;;;2.75;;
70667;SDS011;58242;51.250;-1.118;2022-12-08T12:21:00;3.20;;;2.90;;
70667;SDS011;58242;51.250;-1.118;2022-12-08T12:23:35;2.97;;;2.72;;
70667;SDS011;58242;51.250;-1.118;2022-12-08T12:26:08;4.30;;;3.03;;
70667;SDS011;58242;51.250;-1.118;2022-12-08T12:28:42;3.00;;;2.80;;
70667;SDS011;58242;51.250;-1.118;2022-12-08T12:31:14;2.50;;;2.40;;
70667;SDS011;58242;51.250;-1.118;2022-12-08T12:33:42;2.95;;;2.67;;
70667;SDS011;58242;51.250;-1.118;2022-12-08T12:36:10;3.17;;;2.87;;
70667;SDS011;58242;51.250;-1.118;2022-12-08T12:38:45;3.15;;;2.95;;
70667;SDS011;58242;51.250;-1.118;2022-12-08T12:41:27;2.97;;;2.78;;
70667;SDS011;58242;51.250;-1.118;2022-12-08T12:52:45;2.58;;;2.38;;
70667;SDS011;58242;51.250;-1.118;2022-12-08T12:57:23;3.08;;;2.85;;
70667;SDS011;58242;51.250;-1.118;2022-12-08T13:00:05;2.88;;;2.70;;
70667;SDS011;58242;51.250;-1.118;2022-12-08T13:02:33;2.90;;;2.70;;
70667;SDS011;58242;51.250;-1.118;2022-12-08T13:07:35;2.13;;;2.03;;
70667;SDS011;58242;51.250;-1.118;2022-12-08T13:12:39;3.22;;;2.92;;
70667;SDS011;58242;51.250;-1.118;2022-12-08T13:15:04;3.53;;;3.13;;
70667;SDS011;58242;51.250;-1.118;2022-12-08T13:17:32;3.33;;;2.80;;
70667;SDS011;58242;51.250;-1.118;2022-12-08T13:20:00;2.95;;;2.75;;
70667;SDS011;58242;51.250;-1.118;2022-12-08T13:33:11;2.50;;;2.30;;
70667;SDS011;58242;51.250;-1.118;2022-12-08T13:35:44;2.40;;;2.20;;
70667;SDS011;58242;51.250;-1.118;2022-12-08T13:38:16;3.20;;;2.92;;
70667;SDS011;58242;51.250;-1.118;2022-12-08T13:40:45;3.15;;;2.95;;
70667;SDS011;58242;51.250;-1.118;2022-12-08T13:43:15;2.95;;;2.75;;
70667;SDS011;58242;51.250;-1.118;2022-12-08T13:45:47;2.80;;;2.60;;
70667;SDS011;58242;51.250;-1.118;2022-12-08T13:48:19;2.55;;;2.45;;
70667;SDS011;58242;51.250;-1.118;2022-12-08T13:50:52;2.67;;;2.58;;
70667;SDS011;58242;51.250;-1.118;2022-12-08T13:53:26;2.67;;;2.58;;
70667;SDS011;58242;51.250;-1.118;2022-12-08T13:55:54;2.63;;;2.53;;
70667;SDS011;58242;51.250;-1.118;2022-12-08T13:58:26;3.03;;;2.50;;
70667;SDS011;58242;51.250;-1.118;2022-12-08T14:03:54;2.80;;;2.70;;
70667;SDS011;58242;51.250;-1.118;2022-12-08T14:06:24;2.65;;;2.55;;
70667;SDS011;58242;51.250;-1.118;2022-12-08T14:09:03;3.47;;;3.20;;
70667;SDS011;58242;51.250;-1.118;2022-12-08T14:11:35;3.67;;;3.33;;
70667;SDS011;58242;51.250;-1.118;2022-12-08T14:16:36;3.17;;;2.63;;
70667;SDS011;58242;51.250;-1.118;2022-12-08T14:19:36;2.85;;;2.65;;
70667;SDS011;58242;51.250;-1.118;2022-12-08T14:21:57;3.05;;;2.83;;
70667;SDS011;58242;51.250;-1.118;2022-12-08T14:24:25;3.28;;;3.08;;
70667;SDS011;58242;51.250;-1.118;2022-12-08T14:26:58;4.07;;;2.95;;
70667;SDS011;58242;51.250;-1.118;2022-12-08T14:32:29;2.92;;;2.72;;
70667;SDS011;58242;51.250;-1.118;2022-12-08T14:37:34;2.70;;;2.50;;
70667;SDS011;58242;51.250;-1.118;2022-12-08T14:40:02;2.30;;;2.10;;
70667;SDS011;58242;51.250;-1.118;2022-12-08T14:42:30;2.45;;;2.35;;
70667;SDS011;58242;51.250;-1.118;2022-12-08T14:45:08;2.17;;;2.08;;
70667;SDS011;58242;51.250;-1.118;2022-12-08T14:47:35;2.70;;;2.50;;
70667;SDS011;58242;51.250;-1.118;2022-12-08T14:50:01;2.42;;;2.33;;
70667;SDS011;58242;51.250;-1.118;2022-12-08T14:52:29;3.93;;;2.93;;
70667;SDS011;58242;51.250;-1.118;2022-12-08T14:54:54;2.50;;;2.30;;
70667;SDS011;58242;51.250;-1.118;2022-12-08T14:57:21;3.38;;;2.70;;
70667;SDS011;58242;51.250;-1.118;2022-12-08T14:59:47;2.65;;;2.45;;
70667;SDS011;58242;51.250;-1.118;2022-12-08T15:07:30;2.97;;;2.60;;
70667;SDS011;58242;51.250;-1.118;2022-12-08T15:10:08;2.70;;;2.50;;
70667;SDS011;58242;51.250;-1.118;2022-12-08T15:13:05;3.15;;;2.30;;
70667;SDS011;58242;51.250;-1.118;2022-12-08T15:15:53;2.58;;;2.42;;
70667;SDS011;58242;51.250;-1.118;2022-12-08T15:18:21;2.78;;;2.45;;
70667;SDS011;58242;51.250;-1.118;2022-12-08T15:20:59;2.58;;;2.42;;
70667;SDS011;58242;51.250;-1.118;2022-12-08T15:23:27;2.35;;;2.25;;
70667;SDS011;58242;51.250;-1.118;2022-12-08T15:25:55;2.10;;;2.00;;
70667;SDS011;58242;51.250;-1.118;2022-12-08T15:28:22;2.28;;;2.17;;
70667;SDS011;58242;51.250;-1.118;2022-12-08T15:30:49;2.20;;;2.10;;
70667;SDS011;58242;51.250;-1.118;2022-12-08T15:33:15;4.63;;;2.60;;
70667;SDS011;58242;51.250;-1.118;2022-12-08T15:35:41;2.58;;;2.42;;
70667;SDS011;58242;51.250;-1.118;2022-12-08T15:38:10;2.30;;;2.10;;
70667;SDS011;58242;51.250;-1.118;2022-12-08T15:40:42;2.83;;;2.63;;
70667;SDS011;58242;51.250;-1.118;2022-12-08T15:43:09;2.75;;;2.42;;
70667;SDS011;58242;51.250;-1.118;2022-12-08T15:45:35;4.25;;;2.38;;
70667;SDS011;58242;51.250;-1.118;2022-12-08T15:48:00;2.50;;;2.30;;
70667;SDS011;58242;51.250;-1.118;2022-12-08T15:50:25;2.47;;;2.30;;
70667;SDS011;58242;51.250;-1.118;2022-12-08T15:52:51;2.40;;;2.28;;
70667;SDS011;58242;51.250;-1.118;2022-12-08T15:55:17;2.70;;;2.50;;
70667;SDS011;58242;51.250;-1.118;2022-12-08T15:57:45;2.60;;;2.40;;
70667;SDS011;58242;51.250;-1.118;2022-12-08T16:02:50;3.45;;;2.63;;
70667;SDS011;58242;51.250;-1.118;2022-12-08T16:05:15;2.78;;;2.60;;
70667;SDS011;58242;51.250;-1.118;2022-12-08T16:07:41;3.50;;;3.20;;
70667;SDS011;58242;51.250;-1.118;2022-12-08T16:10:08;4.35;;;3.40;;
70667;SDS011;58242;51.250;-1.118;2022-12-08T16:12:39;3.92;;;3.40;;
70667;SDS011;58242;51.250;-1.118;2022-12-08T16:15:23;4.38;;;3.83;;
70667;SDS011;58242;51.250;-1.118;2022-12-08T16:17:48;3.75;;;3.35;;
70667;SDS011;58242;51.250;-1.118;2022-12-08T16:20:14;4.22;;;3.10;;
70667;SDS011;58242;51.250;-1.118;2022-12-08T16:22:42;3.53;;;2.92;;
70667;SDS011;58242;51.250;-1.118;2022-12-08T16:25:07;3.33;;;2.95;;
70667;SDS011;58242;51.250;-1.118;2022-12-08T16:27:34;4.00;;;3.45;;
70667;SDS011;58242;51.250;-1.118;2022-12-08T16:30:02;4.38;;;3.00;;
70667;SDS011;58242;51.250;-1.118;2022-12-08T16:32:30;3.30;;;3.10;;
70667;SDS011;58242;51.250;-1.118;2022-12-08T16:34:55;3.20;;;3.00;;
70667;SDS011;58242;51.250;-1.118;2022-12-08T16:37:22;2.95;;;2.75;;
70667;SDS011;58242;51.250;-1.118;2022-12-08T16:39:50;4.07;;;3.45;;
70667;SDS011;58242;51.250;-1.118;2022-12-08T16:42:17;3.15;;;2.85;;
70667;SDS011;58242;51.250;-1.118;2022-12-08T16:47:43;3.28;;;2.97;;
70667;SDS011;58242;51.250;-1.118;2022-12-08T16:50:24;3.72;;;3.38;;
70667;SDS011;58242;51.250;-1.118;2022-12-08T16:52:55;3.65;;;3.17;;